This is the latest recevied weather packets stored in our database for station/object CA4LJZ-10. If no packets are shown the sender has not sent any weather packets the latest 10 day(s).
| Time | Temp. | Humidity | Pressure | Rain* | Wind** | Luminosity | Snow |
|---|---|---|---|---|---|---|---|
| 1777735168 | 43.33° C | 17% | 954.7 hPa | - | - | - | - |
| 1777734266 | 41.11° C | 17% | 954.8 hPa | - | - | - | - |
| 1777733365 | 41.67° C | 19% | 955.2 hPa | - | - | - | - |
| 1777732560 | 34.44° C | 24% | 955.2 hPa | - | - | - | - |
| 1777732464 | 34.44° C | 24% | 955.2 hPa | - | - | - | - |
| 1777731563 | 40° C | 19% | 955.4 hPa | - | - | - | - |
| 1777730662 | 35.56° C | 24% | 955.6 hPa | - | - | - | - |
| 1777729793 | 31.11° C | 28% | 955.5 hPa | - | - | - | - |
| 1777729761 | 31.11° C | 28% | 955.5 hPa | - | - | - | - |
| 1777728860 | 28.89° C | 29% | 955.5 hPa | - | - | - | - |
| 1777727959 | 31.67° C | 26% | 955.7 hPa | - | - | - | - |
| 1777725256 | 11.11° C | 70% | 955.6 hPa | - | - | - | - |
| 1777724355 | 9.44° C | 73% | 955.6 hPa | - | - | - | - |
| 1777723455 | 8.89° C | 73% | 955.6 hPa | - | - | - | - |
| 1777722553 | 8.89° C | 73% | 955.7 hPa | - | - | - | - |
| 1777721652 | 8.33° C | 74% | 955.6 hPa | - | - | - | - |
| 1777721048 | 8.89° C | 73% | 955.5 hPa | - | - | - | - |
| 1777720751 | 8.89° C | 73% | 955.5 hPa | - | - | - | - |
| 1777719850 | 8.89° C | 72% | 955.6 hPa | - | - | - | - |
| 1777718949 | 9.44° C | 73% | 955.5 hPa | - | - | - | - |
| 1777718048 | 9.44° C | 73% | 955.5 hPa | - | - | - | - |
| 1777717147 | 11.11° C | 73% | 955.3 hPa | - | - | - | - |
| 1777716268 | 9.44° C | 74% | 955.4 hPa | - | - | - | - |
| 1777715368 | 9.44° C | 74% | 955.6 hPa | - | - | - | - |
| 1777714466 | 9.44° C | 77% | 955.4 hPa | - | - | - | - |
* Rain since midnight (hover to see other rain measurements)
** Current wind speed in m/s (hover to see current wind gust speed)